| time (UTC) | temp C | wind direction | speed KPH | gust KPH | rain 1hr cm | rain 24hr cm | rain mn cm | humidity % | barometer mb |
| 20260507213335 | 22 | 286 | 11.3 | 24.1 | 0.00 | 0.00 | 0.00 | 26 | 1014.7 |
| 20260507212342 | 22 | 251 | 16.1 | 22.5 | 0.00 | 0.00 | 0.00 | 30 | 1014.9 |
| 20260507211346 | 21 | 258 | 12.9 | 20.9 | 0.00 | 0.00 | 0.00 | 34 | 1014.9 |
| 20260507210401 | 21 | 258 | 14.5 | 20.9 | 0.00 | 0.00 | 0.00 | 36 | 1015.1 |
| 20260507205351 | 21 | 281 | 9.7 | 22.5 | 0.00 | 0.00 | 0.00 | 36 | 1015.2 |
| 20260507204335 | 21 | 272 | 16.1 | 24.1 | 0.00 | 0.00 | 0.00 | 35 | 1015.3 |
| 20260507203329 | 21 | 284 | 14.5 | 25.7 | 0.00 | 0.00 | 0.00 | 38 | 1015.4 |
| 20260507202354 | 21 | 279 | 9.7 | 25.7 | 0.00 | 0.00 | 0.00 | 41 | 1015.4 |
| 20260507201342 | 21 | 293 | 12.9 | 19.3 | 0.00 | 0.00 | 0.00 | 38 | 1015.6 |
| 20260507200334 | 20 | 269 | 9.7 | 22.5 | 0.00 | 0.00 | 0.00 | 40 | 1015.7 |
| 20260507195328 | 20 | 263 | 16.1 | 24.1 | 0.00 | 0.00 | 0.00 | 41 | 1015.7 |
| 20260507194353 | 20 | 273 | 6.4 | 19.3 | 0.00 | 0.00 | 0.00 | 41 | 1015.8 |
| 20260507193333 | 20 | 279 | 16.1 | 22.5 | 0.00 | 0.00 | 0.00 | 41 | 1015.9 |
| 20260507192346 | 20 | 265 | 11.3 | 20.9 | 0.00 | 0.00 | 0.00 | 41 | 1015.8 |
| 20260507191334 | 19 | 252 | 14.5 | 24.1 | 0.00 | 0.00 | 0.00 | 38 | 1015.9 |
| 20260507190416 | 19 | 286 | 11.3 | 25.7 | 0.00 | 0.00 | 0.00 | 44 | 1016.0 |
| 20260507185337 | 18 | 256 | 16.1 | 22.5 | 0.00 | 0.00 | 0.00 | 44 | 1016.0 |
| 20260507184335 | 18 | 232 | 16.1 | 20.9 | 0.00 | 0.00 | 0.00 | 46 | 1016.1 |
| 20260507183329 | 18 | 256 | 19.3 | 24.1 | 0.00 | 0.00 | 0.00 | 47 | 1016.2 |
| 20260507182331 | 18 | 252 | 12.9 | 25.7 | 0.00 | 0.00 | 0.00 | 51 | 1016.2 |
| 20260507181354 | 17 | 247 | 11.3 | 24.1 | 0.00 | 0.00 | 0.00 | 52 | 1016.3 |
| 20260507180342 | 17 | 269 | 16.1 | 24.1 | 0.00 | 0.00 | 0.00 | 52 | 1016.3 |
| 20260507175337 | 17 | 257 | 16.1 | 27.4 | 0.00 | 0.00 | 0.00 | 52 | 1016.4 |
| 20260507174416 | 17 | 265 | 11.3 | 20.9 | 0.00 | 0.00 | 0.00 | 57 | 1016.5 |
| 20260507173345 | 16 | 263 | 16.1 | 27.4 | 0.00 | 0.00 | 0.00 | 55 | 1016.5 |
| 20260507172348 | 16 | 254 | 12.9 | 24.1 | 0.00 | 0.00 | 0.00 | 57 | 1016.7 |
| 20260507171330 | 16 | 273 | 16.1 | 27.4 | 0.00 | 0.00 | 0.00 | 56 | 1016.6 |
| 20260507170327 | 16 | 241 | 16.1 | 30.6 | 0.00 | 0.00 | 0.00 | 57 | 1016.7 |
| 20260507165350 | 16 | 269 | 20.9 | 27.4 | 0.00 | 0.00 | 0.00 | 58 | 1016.7 |
| 20260507164357 | 15 | 256 | 19.3 | 30.6 | 0.00 | 0.00 | 0.00 | 60 | 1016.6 |
| 20260507163401 | 15 | 236 | 20.9 | 29.0 | 0.00 | 0.00 | 0.00 | 62 | 1016.5 |
| 20260507162333 | 15 | 250 | 20.9 | 29.0 | 0.00 | 0.00 | 0.00 | 64 | 1016.3 |
| 20260507161355 | 15 | 259 | 20.9 | 27.4 | 0.00 | 0.00 | 0.00 | 66 | 1016.5 |
| 20260507160407 | 14 | 265 | 20.9 | 30.6 | 0.00 | 0.00 | 0.00 | 67 | 1016.6 |
| 20260507155330 | 14 | 263 | 19.3 | 27.4 | 0.00 | 0.00 | 0.00 | 68 | 1016.8 |
| 20260507154352 | 14 | 248 | 19.3 | 29.0 | 0.00 | 0.00 | 0.00 | 69 | 1016.7 |
| 20260507153334 | 13 | 250 | 24.1 | 29.0 | 0.00 | 0.00 | 0.00 | 69 | 1016.5 |
| 20260507152346 | 13 | 249 | 19.3 | 32.2 | 0.00 | 0.00 | 0.00 | 71 | 1016.6 |
| 20260507151400 | 13 | 254 | 22.5 | 33.8 | 0.00 | 0.00 | 0.00 | 72 | 1016.5 |
| 20260507150330 | 13 | 257 | 16.1 | 30.6 | 0.00 | 0.00 | 0.00 | 74 | 1016.6 |
| 20260507145333 | 12 | 248 | 22.5 | 33.8 | 0.00 | 0.00 | 0.00 | 74 | 1016.7 |
| 20260507144356 | 12 | 254 | 19.3 | 29.0 | 0.00 | 0.00 | 0.00 | 75 | 1016.6 |
| 20260507143339 | 11 | 250 | 16.1 | 25.7 | 0.00 | 0.00 | 0.00 | 78 | 1016.4 |
| 20260507142333 | 11 | 236 | 14.5 | 22.5 | 0.00 | 0.00 | 0.00 | 78 | 1016.2 |
| 20260507141327 | 11 | 264 | 14.5 | 25.7 | 0.00 | 0.00 | 0.00 | 78 | 1016.3 |
| 20260507140333 | 11 | 242 | 12.9 | 25.7 | 0.00 | 0.00 | 0.00 | 78 | 1016.3 |
| 20260507135402 | 11 | 242 | 11.3 | 20.9 | 0.00 | 0.00 | 0.00 | 79 | 1016.2 |
| 20260507134351 | 11 | 243 | 9.7 | 17.7 | 0.00 | 0.00 | 0.00 | 79 | 1016.1 |
| 20260507133328 | 11 | 252 | 12.9 | 20.9 | 0.00 | 0.00 | 0.00 | 79 | 1016.0 |
| 20260507132357 | 11 | 267 | 8.0 | 16.1 | 0.00 | 0.00 | 0.00 | 80 | 1016.0 |
| 20260507131330 | 10 | 254 | 9.7 | 17.7 | 0.00 | 0.00 | 0.00 | 80 | 1015.9 |
| 20260507130419 | 10 | 225 | 11.3 | 16.1 | 0.00 | 0.00 | 0.00 | 79 | 1015.8 |
| 20260507125338 | 8 | 256 | 4.8 | 9.7 | 0.00 | 0.00 | 0.00 | 79 | 1016.0 |
| 20260507124344 | 8 | 246 | 0.0 | 3.2 | 0.00 | 0.00 | 0.00 | 80 | 1015.9 |
| 20260507123342 | 8 | 246 | 0.0 | 4.8 | 0.00 | 0.00 | 0.00 | 80 | 1015.9 |
| 20260507122354 | 8 | 247 | 4.8 | 8.0 | 0.00 | 0.00 | 0.00 | 80 | 1016.0 |
| 20260507121329 | 8 | 245 | 3.2 | 8.0 | 0.00 | 0.00 | 0.00 | 80 | 1016.0 |
| 20260507120340 | 8 | 239 | 4.8 | 8.0 | 0.00 | 0.00 | 0.00 | 80 | 1015.9 |
| 20260507115333 | 8 | 188 | 1.6 | 3.2 | 0.00 | 0.00 | 0.00 | 80 | 1015.9 |
| 20260507114353 | 9 | 186 | 1.6 | 4.8 | 0.00 | 0.00 | 0.00 | 80 | 1015.9 |
| 20260507113332 | 10 | 220 | 0.0 | 3.2 | 0.00 | 0.00 | 0.00 | 79 | 1015.9 |
| 20260507112340 | 11 | 289 | 0.0 | 0.0 | 0.00 | 0.00 | 0.00 | 78 | 1015.9 |
| 20260507111330 | 11 | 289 | 0.0 | 4.8 | 0.00 | 0.00 | 0.00 | 78 | 1015.9 |
| 20260507110333 | 11 | 287 | 0.0 | 8.0 | 0.00 | 0.00 | 0.00 | 78 | 1015.9 |
| 20260507105404 | 11 | 287 | 6.4 | 12.9 | 0.00 | 0.00 | 0.00 | 78 | 1015.6 |
| 20260507104343 | 11 | 284 | 11.3 | 14.5 | 0.00 | 0.00 | 0.00 | 79 | 1015.6 |
| 20260507103403 | 10 | 266 | 3.2 | 8.0 | 0.00 | 0.00 | 0.00 | 79 | 1015.6 |
| 20260507102401 | 11 | 272 | 0.0 | 3.2 | 0.00 | 0.00 | 0.00 | 79 | 1015.5 |
| 20260507101341 | 11 | 272 | 6.4 | 8.0 | 0.00 | 0.00 | 0.00 | 78 | 1015.7 |
| 20260507100329 | 11 | 245 | 0.0 | 4.8 | 0.00 | 0.00 | 0.00 | 78 | 1015.7 |
| 20260507095334 | 11 | 242 | 3.2 | 8.0 | 0.00 | 0.00 | 0.00 | 77 | 1015.7 |
| 20260507094355 | 12 | 253 | 6.4 | 12.9 | 0.00 | 0.00 | 0.00 | 76 | 1015.6 |
| 20260507093333 | 12 | 261 | 4.8 | 12.9 | 0.00 | 0.00 | 0.00 | 74 | 1015.8 |
| 20260507092404 | 12 | 261 | 9.7 | 16.1 | 0.00 | 0.00 | 0.00 | 74 | 1015.8 |
| 20260507091332 | 12 | 246 | 4.8 | 11.3 | 0.00 | 0.00 | 0.00 | 73 | 1015.8 |
| 20260507090358 | 12 | 259 | 8.0 | 16.1 | 0.00 | 0.00 | 0.00 | 73 | 1015.7 |
| 20260507085338 | 12 | 261 | 9.7 | 14.5 | 0.00 | 0.00 | 0.00 | 73 | 1015.5 |
| 20260507084336 | 13 | 261 | 3.2 | 11.3 | 0.00 | 0.00 | 0.00 | 71 | 1015.7 |
| 20260507083352 | 13 | 261 | 6.4 | 20.9 | 0.00 | 0.00 | 0.00 | 69 | 1015.6 |
| 20260507082359 | 13 | 277 | 14.5 | 25.7 | 0.00 | 0.00 | 0.00 | 68 | 1015.5 |
| 20260507081336 | 13 | 269 | 12.9 | 20.9 | 0.00 | 0.00 | 0.00 | 67 | 1015.4 |
| 20260507080328 | 14 | 267 | 16.1 | 25.7 | 0.00 | 0.00 | 0.00 | 66 | 1015.2 |
| 20260507075343 | 14 | 272 | 16.1 | 25.7 | 0.00 | 0.00 | 0.00 | 65 | 1015.2 |
| 20260507074342 | 13 | 276 | 16.1 | 20.9 | 0.00 | 0.00 | 0.00 | 66 | 1015.1 |
| 20260507073348 | 13 | 269 | 14.5 | 22.5 | 0.00 | 0.00 | 0.00 | 66 | 1015.1 |
| 20260507072348 | 13 | 270 | 12.9 | 17.7 | 0.00 | 0.00 | 0.00 | 67 | 1015.3 |
| 20260507071328 | 13 | 259 | 8.0 | 16.1 | 0.00 | 0.00 | 0.00 | 66 | 1015.2 |
| 20260507070326 | 14 | 275 | 12.9 | 20.9 | 0.00 | 0.00 | 0.00 | 65 | 1015.1 |
| 20260507065357 | 14 | 257 | 12.9 | 22.5 | 0.00 | 0.00 | 0.00 | 64 | 1015.0 |
| 20260507064344 | 13 | 268 | 12.9 | 19.3 | 0.00 | 0.00 | 0.00 | 65 | 1015.2 |
| 20260507063350 | 13 | 264 | 12.9 | 17.7 | 0.00 | 0.00 | 0.00 | 65 | 1015.0 |
| 20260507062347 | 13 | 257 | 8.0 | 14.5 | 0.00 | 0.00 | 0.00 | 65 | 1015.0 |
| 20260507061347 | 14 | 252 | 9.7 | 20.9 | 0.00 | 0.00 | 0.00 | 64 | 1014.9 |
| 20260507060406 | 14 | 254 | 6.4 | 14.5 | 0.00 | 0.00 | 0.00 | 64 | 1014.9 |
| 20260507055332 | 15 | 258 | 9.7 | 17.7 | 0.00 | 0.00 | 0.00 | 62 | 1014.9 |
| 20260507054340 | 15 | 272 | 4.8 | 14.5 | 0.00 | 0.00 | 0.00 | 62 | 1014.7 |
| 20260507053330 | 15 | 245 | 11.3 | 19.3 | 0.00 | 0.00 | 0.00 | 60 | 1014.8 |
| 20260507052333 | 16 | 253 | 14.5 | 22.5 | 0.00 | 0.00 | 0.00 | 58 | 1014.8 |
| 20260507051326 | 16 | 265 | 17.7 | 24.1 | 0.00 | 0.00 | 0.00 | 58 | 1014.7 |
| 20260507050337 | 16 | 268 | 14.5 | 20.9 | 0.00 | 0.00 | 0.00 | 58 | 1014.8 |
| 20260507045345 | 16 | 257 | 9.7 | 19.3 | 0.00 | 0.00 | 0.00 | 57 | 1014.8 |
| 20260507044327 | 16 | 264 | 11.3 | 22.5 | 0.00 | 0.00 | 0.00 | 55 | 1014.9 |
| 20260507043354 | 17 | 265 | 17.7 | 29.0 | 0.00 | 0.00 | 0.00 | 53 | 1014.7 |
| 20260507042336 | 17 | 267 | 20.9 | 27.4 | 0.00 | 0.00 | 0.00 | 53 | 1014.6 |
| 20260507041348 | 17 | 270 | 11.3 | 24.1 | 0.00 | 0.00 | 0.00 | 54 | 1014.6 |
| 20260507040346 | 17 | 250 | 12.9 | 27.4 | 0.00 | 0.00 | 0.00 | 53 | 1014.6 |
| 20260507035401 | 18 | 258 | 20.9 | 29.0 | 0.00 | 0.00 | 0.00 | 51 | 1014.3 |
| 20260507034330 | 18 | 248 | 17.7 | 29.0 | 0.00 | 0.00 | 0.00 | 51 | 1014.1 |
| 20260507033338 | 18 | 251 | 16.1 | 29.0 | 0.00 | 0.00 | 0.00 | 51 | 1014.1 |
| 20260507032336 | 18 | 257 | 16.1 | 27.4 | 0.00 | 0.00 | 0.00 | 51 | 1013.9 |
| 20260507031401 | 19 | 245 | 17.7 | 29.0 | 0.00 | 0.00 | 0.00 | 51 | 1013.8 |
| 20260507030325 | 19 | 262 | 17.7 | 30.6 | 0.00 | 0.00 | 0.00 | 51 | 1013.8 |
| 20260507025353 | 20 | 252 | 19.3 | 29.0 | 0.00 | 0.00 | 0.00 | 50 | 1013.7 |
| 20260507024345 | 20 | 261 | 20.9 | 33.8 | 0.00 | 0.00 | 0.00 | 50 | 1013.4 |
| 20260507023338 | 20 | 250 | 16.1 | 29.0 | 0.00 | 0.00 | 0.00 | 50 | 1013.4 |
| 20260507022349 | 20 | 250 | 16.1 | 27.4 | 0.00 | 0.00 | 0.00 | 49 | 1013.4 |
| 20260507021357 | 20 | 242 | 16.1 | 24.1 | 0.00 | 0.00 | 0.00 | 48 | 1013.3 |
| 20260507020335 | 21 | 242 | 12.9 | 22.5 | 0.00 | 0.00 | 0.00 | 47 | 1013.3 |
| 20260507015331 | 21 | 250 | 19.3 | 38.6 | 0.00 | 0.00 | 0.00 | 46 | 1013.3 |
| 20260507014406 | 21 | 240 | 22.5 | 32.2 | 0.00 | 0.00 | 0.00 | 46 | 1013.1 |
| 20260507013339 | 22 | 259 | 16.1 | 27.4 | 0.00 | 0.00 | 0.00 | 48 | 1013.1 |
| 20260507012341 | 22 | 258 | 16.1 | 27.4 | 0.00 | 0.00 | 0.00 | 47 | 1013.1 |
| 20260507011335 | 22 | 271 | 24.1 | 35.4 | 0.00 | 0.00 | 0.00 | 45 | 1013.0 |
| 20260507010329 | 22 | 271 | 17.7 | 25.7 | 0.00 | 0.00 | 0.00 | 47 | 1012.9 |
| 20260507005340 | 22 | 255 | 11.3 | 25.7 | 0.00 | 0.00 | 0.00 | 48 | 1013.0 |
| 20260507004327 | 23 | 261 | 20.9 | 30.6 | 0.00 | 0.00 | 0.00 | 45 | 1013.0 |
| 20260507003343 | 23 | 280 | 17.7 | 33.8 | 0.00 | 0.00 | 0.00 | 46 | 1012.9 |
| 20260507002337 | 23 | 248 | 22.5 | 35.4 | 0.00 | 0.00 | 0.00 | 46 | 1012.8 |
| 20260507001351 | 23 | 254 | 17.7 | 29.0 | 0.00 | 0.00 | 0.00 | 48 | 1012.7 |
| 20260507000333 | 23 | 271 | 17.7 | 29.0 | 0.00 | 0.00 | 0.00 | 49 | 1012.6 |
| 20260506235400 | 23 | 272 | 14.5 | 25.7 | 0.00 | 0.00 | 0.00 | 50 | 1012.7 |
| 20260506234357 | 23 | 273 | 20.9 | 30.6 | 0.00 | 0.00 | 0.00 | 46 | 1012.7 |
| 20260506233333 | 23 | 266 | 20.9 | 27.4 | 0.00 | 0.00 | 0.00 | 47 | 1012.7 |
| 20260506232348 | 23 | 284 | 16.1 | 24.1 | 0.00 | 0.00 | 0.00 | 49 | 1012.8 |
| 20260506231338 | 23 | 264 | 19.3 | 30.6 | 0.00 | 0.00 | 0.00 | 47 | 1012.8 |
| 20260506230330 | 23 | 279 | 16.1 | 25.7 | 0.00 | 0.00 | 0.00 | 47 | 1012.8 |
| 20260506225340 | 24 | 267 | 16.1 | 30.6 | 0.00 | 0.00 | 0.00 | 46 | 1012.8 |
| 20260506224347 | 25 | 257 | 20.9 | 30.6 | 0.00 | 0.00 | 0.00 | 41 | 1012.9 |
| 20260506223337 | 25 | 266 | 22.5 | 30.6 | 0.00 | 0.00 | 0.00 | 43 | 1013.0 |
| 20260506222342 | 25 | 275 | 20.9 | 32.2 | 0.00 | 0.00 | 0.00 | 44 | 1013.2 |
| 20260506221333 | 25 | 277 | 20.9 | 30.6 | 0.00 | 0.00 | 0.00 | 43 | 1013.1 |
| 20260506220337 | 25 | 271 | 20.9 | 32.2 | 0.00 | 0.00 | 0.00 | 44 | 1013.1 |
| 20260506215342 | 25 | 261 | 19.3 | 30.6 | 0.00 | 0.00 | 0.00 | 45 | 1013.2 |
| 20260506214414 | 25 | 263 | 19.3 | 29.0 | 0.00 | 0.00 | 0.00 | 46 | 1013.4 |